sensor_id;sensor_type;location;lat;lon;timestamp;P1;durP1;ratioP1;P2;durP2;ratioP2
59109;SDS011;44895;47.438;18.978;2022-10-30T00:02:47;52.65;;;31.85;;
59109;SDS011;44895;47.438;18.978;2022-10-30T00:05:51;45.63;;;27.92;;
59109;SDS011;44895;47.438;18.978;2022-10-30T00:08:55;53.55;;;31.48;;
59109;SDS011;44895;47.438;18.978;2022-10-30T00:11:59;55.15;;;32.35;;
59109;SDS011;44895;47.438;18.978;2022-10-30T00:15:02;49.85;;;31.67;;
59109;SDS011;44895;47.438;18.978;2022-10-30T00:18:06;54.88;;;31.02;;
59109;SDS011;44895;47.438;18.978;2022-10-30T00:21:12;55.78;;;32.83;;
59109;SDS011;44895;47.438;18.978;2022-10-30T00:24:16;42.20;;;29.30;;
59109;SDS011;44895;47.438;18.978;2022-10-30T00:27:21;51.45;;;31.50;;
59109;SDS011;44895;47.438;18.978;2022-10-30T00:30:25;49.25;;;31.63;;
59109;SDS011;44895;47.438;18.978;2022-10-30T00:33:28;54.13;;;33.67;;
59109;SDS011;44895;47.438;18.978;2022-10-30T00:36:33;56.72;;;32.97;;
59109;SDS011;44895;47.438;18.978;2022-10-30T00:39:37;54.10;;;32.28;;
59109;SDS011;44895;47.438;18.978;2022-10-30T00:42:41;56.53;;;32.50;;
59109;SDS011;44895;47.438;18.978;2022-10-30T00:45:45;60.90;;;32.90;;
59109;SDS011;44895;47.438;18.978;2022-10-30T00:49:32;49.67;;;32.65;;
59109;SDS011;44895;47.438;18.978;2022-10-30T00:52:17;52.67;;;34.10;;
59109;SDS011;44895;47.438;18.978;2022-10-30T00:58:32;57.72;;;33.97;;
59109;SDS011;44895;47.438;18.978;2022-10-30T01:01:41;46.67;;;31.27;;
59109;SDS011;44895;47.438;18.978;2022-10-30T01:04:48;48.55;;;30.63;;
59109;SDS011;44895;47.438;18.978;2022-10-30T01:07:55;51.55;;;30.77;;
59109;SDS011;44895;47.438;18.978;2022-10-30T01:10:59;56.35;;;33.10;;
59109;SDS011;44895;47.438;18.978;2022-10-30T01:14:06;49.47;;;31.17;;
59109;SDS011;44895;47.438;18.978;2022-10-30T01:21:03;50.28;;;28.70;;
59109;SDS011;44895;47.438;18.978;2022-10-30T01:31:07;41.05;;;24.75;;
59109;SDS011;44895;47.438;18.978;2022-10-30T01:37:51;41.25;;;25.77;;
59109;SDS011;44895;47.438;18.978;2022-10-30T01:41:04;44.88;;;25.80;;
59109;SDS011;44895;47.438;18.978;2022-10-30T01:44:10;46.97;;;27.38;;
59109;SDS011;44895;47.438;18.978;2022-10-30T01:47:32;42.03;;;27.70;;
59109;SDS011;44895;47.438;18.978;2022-10-30T02:00:32;41.40;;;25.25;;
59109;SDS011;44895;47.438;18.978;2022-10-30T02:03:36;43.05;;;28.10;;
59109;SDS011;44895;47.438;18.978;2022-10-30T02:06:40;43.05;;;26.13;;
59109;SDS011;44895;47.438;18.978;2022-10-30T02:09:46;39.42;;;23.25;;
59109;SDS011;44895;47.438;18.978;2022-10-30T02:12:51;37.97;;;24.45;;
59109;SDS011;44895;47.438;18.978;2022-10-30T02:15:54;42.05;;;25.83;;
59109;SDS011;44895;47.438;18.978;2022-10-30T02:19:00;38.35;;;24.80;;
59109;SDS011;44895;47.438;18.978;2022-10-30T02:22:05;37.05;;;21.45;;
59109;SDS011;44895;47.438;18.978;2022-10-30T02:25:09;33.25;;;22.50;;
59109;SDS011;44895;47.438;18.978;2022-10-30T02:28:13;33.67;;;23.02;;
59109;SDS011;44895;47.438;18.978;2022-10-30T02:31:16;37.38;;;21.45;;
59109;SDS011;44895;47.438;18.978;2022-10-30T02:34:21;38.50;;;24.80;;
59109;SDS011;44895;47.438;18.978;2022-10-30T02:37:25;37.20;;;22.05;;
59109;SDS011;44895;47.438;18.978;2022-10-30T02:40:29;38.70;;;23.17;;
59109;SDS011;44895;47.438;18.978;2022-10-30T02:43:33;34.92;;;21.33;;
59109;SDS011;44895;47.438;18.978;2022-10-30T02:46:37;33.63;;;20.30;;
59109;SDS011;44895;47.438;18.978;2022-10-30T02:49:41;34.85;;;21.38;;
59109;SDS011;44895;47.438;18.978;2022-10-30T02:52:45;34.40;;;20.05;;
59109;SDS011;44895;47.438;18.978;2022-10-30T02:55:48;31.25;;;21.52;;
59109;SDS011;44895;47.438;18.978;2022-10-30T02:58:54;30.65;;;20.38;;
59109;SDS011;44895;47.438;18.978;2022-10-30T03:01:59;31.25;;;19.33;;
59109;SDS011;44895;47.438;18.978;2022-10-30T03:05:03;31.77;;;21.23;;
59109;SDS011;44895;47.438;18.978;2022-10-30T03:08:08;33.13;;;21.13;;
59109;SDS011;44895;47.438;18.978;2022-10-30T03:11:13;26.65;;;18.92;;
59109;SDS011;44895;47.438;18.978;2022-10-30T03:14:18;33.42;;;20.50;;
59109;SDS011;44895;47.438;18.978;2022-10-30T03:17:22;34.13;;;21.55;;
59109;SDS011;44895;47.438;18.978;2022-10-30T03:20:26;33.47;;;20.75;;
59109;SDS011;44895;47.438;18.978;2022-10-30T03:23:30;29.27;;;21.08;;
59109;SDS011;44895;47.438;18.978;2022-10-30T03:26:34;31.88;;;19.00;;
59109;SDS011;44895;47.438;18.978;2022-10-30T03:29:42;29.38;;;19.27;;
59109;SDS011;44895;47.438;18.978;2022-10-30T03:32:46;23.52;;;17.10;;
59109;SDS011;44895;47.438;18.978;2022-10-30T03:35:50;27.60;;;18.30;;
59109;SDS011;44895;47.438;18.978;2022-10-30T03:38:54;26.48;;;17.83;;
59109;SDS011;44895;47.438;18.978;2022-10-30T03:41:59;30.38;;;21.38;;
59109;SDS011;44895;47.438;18.978;2022-10-30T03:45:04;25.17;;;16.30;;
59109;SDS011;44895;47.438;18.978;2022-10-30T03:48:09;27.23;;;17.88;;
59109;SDS011;44895;47.438;18.978;2022-10-30T03:51:12;28.30;;;18.70;;
59109;SDS011;44895;47.438;18.978;2022-10-30T03:54:16;32.17;;;18.75;;
59109;SDS011;44895;47.438;18.978;2022-10-30T03:57:20;30.77;;;18.23;;
59109;SDS011;44895;47.438;18.978;2022-10-30T04:00:43;26.55;;;17.67;;
59109;SDS011;44895;47.438;18.978;2022-10-30T04:03:47;28.98;;;18.30;;
59109;SDS011;44895;47.438;18.978;2022-10-30T04:06:50;27.23;;;19.05;;
59109;SDS011;44895;47.438;18.978;2022-10-30T04:09:54;23.08;;;15.93;;
59109;SDS011;44895;47.438;18.978;2022-10-30T04:13:02;22.80;;;15.45;;
59109;SDS011;44895;47.438;18.978;2022-10-30T04:16:08;24.60;;;16.40;;
59109;SDS011;44895;47.438;18.978;2022-10-30T04:19:12;20.75;;;14.57;;
59109;SDS011;44895;47.438;18.978;2022-10-30T04:22:16;25.58;;;16.23;;
59109;SDS011;44895;47.438;18.978;2022-10-30T04:25:20;22.02;;;17.33;;
59109;SDS011;44895;47.438;18.978;2022-10-30T04:28:26;21.00;;;14.15;;
59109;SDS011;44895;47.438;18.978;2022-10-30T04:31:30;23.35;;;15.48;;
59109;SDS011;44895;47.438;18.978;2022-10-30T04:34:34;23.48;;;16.13;;
59109;SDS011;44895;47.438;18.978;2022-10-30T04:37:38;22.90;;;15.18;;
59109;SDS011;44895;47.438;18.978;2022-10-30T04:40:42;23.92;;;16.65;;
59109;SDS011;44895;47.438;18.978;2022-10-30T04:43:47;22.90;;;15.82;;
59109;SDS011;44895;47.438;18.978;2022-10-30T04:46:52;27.23;;;16.50;;
59109;SDS011;44895;47.438;18.978;2022-10-30T04:49:56;23.27;;;13.63;;
59109;SDS011;44895;47.438;18.978;2022-10-30T04:53:01;23.98;;;16.50;;
59109;SDS011;44895;47.438;18.978;2022-10-30T04:56:06;22.23;;;15.45;;
59109;SDS011;44895;47.438;18.978;2022-10-30T04:59:10;20.05;;;14.40;;
59109;SDS011;44895;47.438;18.978;2022-10-30T05:02:14;19.27;;;13.45;;
59109;SDS011;44895;47.438;18.978;2022-10-30T05:05:17;24.63;;;14.80;;
59109;SDS011;44895;47.438;18.978;2022-10-30T05:08:21;21.73;;;14.07;;
59109;SDS011;44895;47.438;18.978;2022-10-30T05:11:25;27.20;;;15.95;;
59109;SDS011;44895;47.438;18.978;2022-10-30T05:14:29;21.95;;;15.65;;
59109;SDS011;44895;47.438;18.978;2022-10-30T05:17:33;21.60;;;15.02;;
59109;SDS011;44895;47.438;18.978;2022-10-30T05:20:37;17.95;;;12.10;;
59109;SDS011;44895;47.438;18.978;2022-10-30T05:23:41;23.98;;;14.57;;
59109;SDS011;44895;47.438;18.978;2022-10-30T05:26:45;22.27;;;15.13;;
59109;SDS011;44895;47.438;18.978;2022-10-30T05:29:49;20.75;;;12.95;;
59109;SDS011;44895;47.438;18.978;2022-10-30T05:32:56;21.55;;;14.60;;
59109;SDS011;44895;47.438;18.978;2022-10-30T05:36:01;22.48;;;14.88;;
59109;SDS011;44895;47.438;18.978;2022-10-30T05:39:04;20.98;;;14.25;;
59109;SDS011;44895;47.438;18.978;2022-10-30T05:45:19;21.63;;;12.73;;
59109;SDS011;44895;47.438;18.978;2022-10-30T05:48:23;22.58;;;15.90;;
59109;SDS011;44895;47.438;18.978;2022-10-30T05:51:27;20.05;;;14.77;;
59109;SDS011;44895;47.438;18.978;2022-10-30T05:54:34;19.80;;;13.43;;
59109;SDS011;44895;47.438;18.978;2022-10-30T05:58:02;20.05;;;12.68;;
59109;SDS011;44895;47.438;18.978;2022-10-30T06:01:07;20.83;;;13.50;;
59109;SDS011;44895;47.438;18.978;2022-10-30T06:04:17;22.02;;;13.52;;
59109;SDS011;44895;47.438;18.978;2022-10-30T06:07:21;22.85;;;15.57;;
59109;SDS011;44895;47.438;18.978;2022-10-30T06:10:25;20.70;;;14.60;;
59109;SDS011;44895;47.438;18.978;2022-10-30T06:13:47;24.67;;;16.85;;
59109;SDS011;44895;47.438;18.978;2022-10-30T06:16:53;26.80;;;14.38;;
59109;SDS011;44895;47.438;18.978;2022-10-30T06:20:14;24.85;;;14.63;;
59109;SDS011;44895;47.438;18.978;2022-10-30T06:23:43;27.17;;;16.48;;
59109;SDS011;44895;47.438;18.978;2022-10-30T06:27:03;26.60;;;16.92;;
59109;SDS011;44895;47.438;18.978;2022-10-30T06:30:07;25.40;;;16.15;;
59109;SDS011;44895;47.438;18.978;2022-10-30T06:33:11;22.98;;;14.45;;
59109;SDS011;44895;47.438;18.978;2022-10-30T06:36:18;26.27;;;18.67;;
59109;SDS011;44895;47.438;18.978;2022-10-30T06:39:22;23.95;;;14.90;;
59109;SDS011;44895;47.438;18.978;2022-10-30T06:42:55;24.95;;;15.43;;
59109;SDS011;44895;47.438;18.978;2022-10-30T06:46:12;22.88;;;16.17;;
59109;SDS011;44895;47.438;18.978;2022-10-30T06:49:18;25.55;;;16.02;;
59109;SDS011;44895;47.438;18.978;2022-10-30T06:52:22;28.80;;;17.52;;
59109;SDS011;44895;47.438;18.978;2022-10-30T06:55:26;26.00;;;16.98;;
59109;SDS011;44895;47.438;18.978;2022-10-30T06:58:55;25.65;;;16.13;;
59109;SDS011;44895;47.438;18.978;2022-10-30T07:02:15;25.35;;;17.00;;
59109;SDS011;44895;47.438;18.978;2022-10-30T07:05:26;29.88;;;15.07;;
59109;SDS011;44895;47.438;18.978;2022-10-30T07:08:30;26.80;;;16.15;;
59109;SDS011;44895;47.438;18.978;2022-10-30T07:11:35;26.23;;;16.20;;
59109;SDS011;44895;47.438;18.978;2022-10-30T07:15:16;28.73;;;19.48;;
59109;SDS011;44895;47.438;18.978;2022-10-30T07:18:33;29.45;;;15.25;;
59109;SDS011;44895;47.438;18.978;2022-10-30T07:21:38;30.13;;;18.60;;
59109;SDS011;44895;47.438;18.978;2022-10-30T07:24:42;26.65;;;16.70;;
59109;SDS011;44895;47.438;18.978;2022-10-30T07:27:56;22.02;;;14.32;;
59109;SDS011;44895;47.438;18.978;2022-10-30T07:31:20;26.60;;;15.85;;
59109;SDS011;44895;47.438;18.978;2022-10-30T07:34:44;26.48;;;16.15;;
59109;SDS011;44895;47.438;18.978;2022-10-30T07:38:20;27.48;;;16.20;;
59109;SDS011;44895;47.438;18.978;2022-10-30T07:41:33;23.27;;;16.05;;
59109;SDS011;44895;47.438;18.978;2022-10-30T07:44:57;31.65;;;16.67;;
59109;SDS011;44895;47.438;18.978;2022-10-30T07:48:13;24.87;;;16.53;;
59109;SDS011;44895;47.438;18.978;2022-10-30T07:51:22;29.42;;;18.70;;
59109;SDS011;44895;47.438;18.978;2022-10-30T07:54:27;26.95;;;17.85;;
59109;SDS011;44895;47.438;18.978;2022-10-30T07:57:36;28.38;;;17.55;;
59109;SDS011;44895;47.438;18.978;2022-10-30T08:01:04;28.90;;;18.38;;
59109;SDS011;44895;47.438;18.978;2022-10-30T08:04:10;28.38;;;16.80;;
59109;SDS011;44895;47.438;18.978;2022-10-30T08:07:16;29.77;;;17.45;;
59109;SDS011;44895;47.438;18.978;2022-10-30T08:10:21;24.00;;;16.38;;
59109;SDS011;44895;47.438;18.978;2022-10-30T08:13:25;22.35;;;16.00;;
59109;SDS011;44895;47.438;18.978;2022-10-30T08:16:29;33.80;;;19.65;;
59109;SDS011;44895;47.438;18.978;2022-10-30T08:19:34;27.55;;;16.67;;
59109;SDS011;44895;47.438;18.978;2022-10-30T08:25:58;28.50;;;17.13;;
59109;SDS011;44895;47.438;18.978;2022-10-30T08:29:06;29.25;;;19.63;;
59109;SDS011;44895;47.438;18.978;2022-10-30T08:32:09;28.63;;;17.48;;
59109;SDS011;44895;47.438;18.978;2022-10-30T08:35:33;29.40;;;17.30;;
59109;SDS011;44895;47.438;18.978;2022-10-30T08:38:37;32.65;;;17.95;;
59109;SDS011;44895;47.438;18.978;2022-10-30T08:41:53;26.48;;;16.27;;
59109;SDS011;44895;47.438;18.978;2022-10-30T08:44:58;28.08;;;18.33;;
59109;SDS011;44895;47.438;18.978;2022-10-30T08:48:26;28.98;;;19.23;;
59109;SDS011;44895;47.438;18.978;2022-10-30T08:51:33;32.05;;;18.10;;
59109;SDS011;44895;47.438;18.978;2022-10-30T08:57:41;30.83;;;20.05;;
59109;SDS011;44895;47.438;18.978;2022-10-30T09:00:45;28.63;;;17.77;;
59109;SDS011;44895;47.438;18.978;2022-10-30T09:03:49;29.73;;;17.30;;
59109;SDS011;44895;47.438;18.978;2022-10-30T09:07:13;26.17;;;16.55;;
59109;SDS011;44895;47.438;18.978;2022-10-30T09:10:42;28.48;;;16.98;;
59109;SDS011;44895;47.438;18.978;2022-10-30T09:13:46;28.02;;;20.15;;
59109;SDS011;44895;47.438;18.978;2022-10-30T09:16:50;30.33;;;17.52;;
59109;SDS011;44895;47.438;18.978;2022-10-30T09:19:57;28.58;;;19.75;;
59109;SDS011;44895;47.438;18.978;2022-10-30T09:23:10;26.20;;;15.25;;
59109;SDS011;44895;47.438;18.978;2022-10-30T09:26:14;30.02;;;18.98;;
59109;SDS011;44895;47.438;18.978;2022-10-30T09:29:26;27.55;;;16.85;;
59109;SDS011;44895;47.438;18.978;2022-10-30T09:32:41;37.03;;;19.75;;
59109;SDS011;44895;47.438;18.978;2022-10-30T09:35:47;24.63;;;16.92;;
59109;SDS011;44895;47.438;18.978;2022-10-30T09:38:51;22.40;;;14.02;;
59109;SDS011;44895;47.438;18.978;2022-10-30T09:52:15;22.83;;;15.77;;
59109;SDS011;44895;47.438;18.978;2022-10-30T09:56:03;23.55;;;15.13;;
59109;SDS011;44895;47.438;18.978;2022-10-30T09:59:16;25.85;;;14.73;;
59109;SDS011;44895;47.438;18.978;2022-10-30T10:06:40;25.80;;;17.40;;
59109;SDS011;44895;47.438;18.978;2022-10-30T10:10:31;32.88;;;17.77;;
59109;SDS011;44895;47.438;18.978;2022-10-30T10:13:59;23.35;;;16.63;;
59109;SDS011;44895;47.438;18.978;2022-10-30T10:17:12;23.15;;;16.33;;
59109;SDS011;44895;47.438;18.978;2022-10-30T10:20:32;24.85;;;16.00;;
59109;SDS011;44895;47.438;18.978;2022-10-30T10:23:46;28.45;;;16.98;;
59109;SDS011;44895;47.438;18.978;2022-10-30T10:36:40;25.50;;;16.38;;
59109;SDS011;44895;47.438;18.978;2022-10-30T10:40:02;27.30;;;17.70;;
59109;SDS011;44895;47.438;18.978;2022-10-30T10:50:24;27.00;;;19.33;;
59109;SDS011;44895;47.438;18.978;2022-10-30T10:53:39;27.52;;;17.98;;
59109;SDS011;44895;47.438;18.978;2022-10-30T10:56:55;35.50;;;17.30;;
59109;SDS011;44895;47.438;18.978;2022-10-30T11:00:06;24.58;;;16.75;;
59109;SDS011;44895;47.438;18.978;2022-10-30T11:03:19;26.73;;;16.60;;
59109;SDS011;44895;47.438;18.978;2022-10-30T11:06:27;25.02;;;17.63;;
59109;SDS011;44895;47.438;18.978;2022-10-30T11:09:34;24.65;;;18.20;;
59109;SDS011;44895;47.438;18.978;2022-10-30T11:12:38;26.23;;;14.52;;
59109;SDS011;44895;47.438;18.978;2022-10-30T11:18:58;21.42;;;13.98;;
59109;SDS011;44895;47.438;18.978;2022-10-30T11:22:08;23.67;;;16.20;;
59109;SDS011;44895;47.438;18.978;2022-10-30T11:25:24;24.20;;;15.85;;
59109;SDS011;44895;47.438;18.978;2022-10-30T11:28:38;26.33;;;18.42;;
59109;SDS011;44895;47.438;18.978;2022-10-30T11:31:45;25.45;;;17.50;;
59109;SDS011;44895;47.438;18.978;2022-10-30T11:35:34;19.90;;;14.07;;
59109;SDS011;44895;47.438;18.978;2022-10-30T11:38:18;25.58;;;17.70;;
59109;SDS011;44895;47.438;18.978;2022-10-30T11:41:23;26.88;;;15.25;;
59109;SDS011;44895;47.438;18.978;2022-10-30T11:44:30;21.23;;;14.10;;
59109;SDS011;44895;47.438;18.978;2022-10-30T11:47:37;22.40;;;15.88;;
59109;SDS011;44895;47.438;18.978;2022-10-30T11:50:44;28.90;;;15.07;;
59109;SDS011;44895;47.438;18.978;2022-10-30T11:53:50;19.40;;;13.95;;
59109;SDS011;44895;47.438;18.978;2022-10-30T11:56:54;23.02;;;13.25;;
59109;SDS011;44895;47.438;18.978;2022-10-30T11:59:58;24.58;;;16.27;;
59109;SDS011;44895;47.438;18.978;2022-10-30T12:03:02;22.80;;;15.77;;
59109;SDS011;44895;47.438;18.978;2022-10-30T12:06:07;26.80;;;13.27;;
59109;SDS011;44895;47.438;18.978;2022-10-30T12:09:22;23.17;;;14.75;;
59109;SDS011;44895;47.438;18.978;2022-10-30T12:12:37;21.63;;;13.00;;
59109;SDS011;44895;47.438;18.978;2022-10-30T12:15:44;21.17;;;15.18;;
59109;SDS011;44895;47.438;18.978;2022-10-30T12:18:51;23.27;;;15.43;;
59109;SDS011;44895;47.438;18.978;2022-10-30T12:22:00;23.85;;;16.08;;
59109;SDS011;44895;47.438;18.978;2022-10-30T12:25:23;27.92;;;16.38;;
59109;SDS011;44895;47.438;18.978;2022-10-30T12:28:28;31.08;;;18.15;;
59109;SDS011;44895;47.438;18.978;2022-10-30T12:31:35;25.33;;;17.38;;
59109;SDS011;44895;47.438;18.978;2022-10-30T12:34:56;26.30;;;17.20;;
59109;SDS011;44895;47.438;18.978;2022-10-30T12:38:06;24.55;;;16.05;;
59109;SDS011;44895;47.438;18.978;2022-10-30T12:44:43;25.98;;;15.98;;
59109;SDS011;44895;47.438;18.978;2022-10-30T12:51:10;25.90;;;15.55;;
59109;SDS011;44895;47.438;18.978;2022-10-30T12:54:42;25.48;;;17.05;;
59109;SDS011;44895;47.438;18.978;2022-10-30T13:01:37;20.25;;;12.93;;
59109;SDS011;44895;47.438;18.978;2022-10-30T13:04:56;23.60;;;14.27;;
59109;SDS011;44895;47.438;18.978;2022-10-30T13:14:53;22.02;;;13.73;;
59109;SDS011;44895;47.438;18.978;2022-10-30T13:18:08;20.58;;;12.88;;
59109;SDS011;44895;47.438;18.978;2022-10-30T13:21:25;21.05;;;14.55;;
59109;SDS011;44895;47.438;18.978;2022-10-30T13:25:00;21.83;;;11.90;;
59109;SDS011;44895;47.438;18.978;2022-10-30T13:28:27;20.98;;;13.88;;
59109;SDS011;44895;47.438;18.978;2022-10-30T13:31:44;20.58;;;13.88;;
59109;SDS011;44895;47.438;18.978;2022-10-30T13:42:35;25.10;;;15.88;;
59109;SDS011;44895;47.438;18.978;2022-10-30T13:45:54;21.70;;;13.98;;
59109;SDS011;44895;47.438;18.978;2022-10-30T13:49:25;20.60;;;13.88;;
59109;SDS011;44895;47.438;18.978;2022-10-30T13:52:38;21.13;;;13.93;;
59109;SDS011;44895;47.438;18.978;2022-10-30T13:55:46;23.10;;;14.35;;
59109;SDS011;44895;47.438;18.978;2022-10-30T13:58:56;23.45;;;16.02;;
59109;SDS011;44895;47.438;18.978;2022-10-30T14:02:14;25.63;;;14.02;;
59109;SDS011;44895;47.438;18.978;2022-10-30T14:09:14;21.80;;;14.98;;
59109;SDS011;44895;47.438;18.978;2022-10-30T14:16:00;24.90;;;15.13;;
59109;SDS011;44895;47.438;18.978;2022-10-30T14:19:07;25.08;;;15.27;;
59109;SDS011;44895;47.438;18.978;2022-10-30T14:22:21;18.58;;;13.63;;
59109;SDS011;44895;47.438;18.978;2022-10-30T14:25:27;21.25;;;13.90;;
59109;SDS011;44895;47.438;18.978;2022-10-30T14:28:41;24.92;;;15.32;;
59109;SDS011;44895;47.438;18.978;2022-10-30T14:31:48;22.58;;;13.27;;
59109;SDS011;44895;47.438;18.978;2022-10-30T14:38:05;17.90;;;13.57;;
59109;SDS011;44895;47.438;18.978;2022-10-30T14:51:53;18.20;;;13.63;;
59109;SDS011;44895;47.438;18.978;2022-10-30T14:55:28;19.63;;;13.63;;
59109;SDS011;44895;47.438;18.978;2022-10-30T14:58:36;21.98;;;14.35;;
59109;SDS011;44895;47.438;18.978;2022-10-30T15:08:37;25.25;;;16.15;;
59109;SDS011;44895;47.438;18.978;2022-10-30T15:12:11;20.73;;;14.77;;
59109;SDS011;44895;47.438;18.978;2022-10-30T15:15:25;21.88;;;15.65;;
59109;SDS011;44895;47.438;18.978;2022-10-30T15:18:28;21.52;;;14.77;;
59109;SDS011;44895;47.438;18.978;2022-10-30T15:21:42;24.83;;;15.35;;
59109;SDS011;44895;47.438;18.978;2022-10-30T15:24:49;31.15;;;14.88;;
59109;SDS011;44895;47.438;18.978;2022-10-30T15:27:54;27.52;;;18.75;;
59109;SDS011;44895;47.438;18.978;2022-10-30T15:34:21;30.02;;;21.15;;
59109;SDS011;44895;47.438;18.978;2022-10-30T15:37:25;24.00;;;17.20;;
59109;SDS011;44895;47.438;18.978;2022-10-30T15:40:29;21.45;;;16.60;;
59109;SDS011;44895;47.438;18.978;2022-10-30T15:43:36;25.63;;;18.00;;
59109;SDS011;44895;47.438;18.978;2022-10-30T15:46:45;23.40;;;16.98;;
59109;SDS011;44895;47.438;18.978;2022-10-30T15:49:51;19.92;;;13.43;;
59109;SDS011;44895;47.438;18.978;2022-10-30T15:52:57;25.75;;;18.23;;
59109;SDS011;44895;47.438;18.978;2022-10-30T15:56:02;19.45;;;14.80;;
59109;SDS011;44895;47.438;18.978;2022-10-30T15:59:06;22.05;;;15.90;;
59109;SDS011;44895;47.438;18.978;2022-10-30T16:02:28;21.10;;;14.50;;
59109;SDS011;44895;47.438;18.978;2022-10-30T16:05:32;27.17;;;16.50;;
59109;SDS011;44895;47.438;18.978;2022-10-30T16:08:44;22.33;;;14.63;;
59109;SDS011;44895;47.438;18.978;2022-10-30T16:11:49;23.02;;;14.30;;
59109;SDS011;44895;47.438;18.978;2022-10-30T16:14:56;21.13;;;15.00;;
59109;SDS011;44895;47.438;18.978;2022-10-30T16:18:22;21.38;;;16.35;;
59109;SDS011;44895;47.438;18.978;2022-10-30T16:21:28;20.92;;;15.93;;
59109;SDS011;44895;47.438;18.978;2022-10-30T16:24:33;22.27;;;15.82;;
59109;SDS011;44895;47.438;18.978;2022-10-30T16:27:44;22.77;;;17.45;;
59109;SDS011;44895;47.438;18.978;2022-10-30T16:30:48;23.48;;;16.05;;
59109;SDS011;44895;47.438;18.978;2022-10-30T16:33:52;23.63;;;17.90;;
59109;SDS011;44895;47.438;18.978;2022-10-30T16:36:56;26.80;;;18.95;;
59109;SDS011;44895;47.438;18.978;2022-10-30T16:40:04;26.13;;;18.35;;
59109;SDS011;44895;47.438;18.978;2022-10-30T16:46:31;25.98;;;19.02;;
59109;SDS011;44895;47.438;18.978;2022-10-30T16:49:38;25.50;;;16.20;;
59109;SDS011;44895;47.438;18.978;2022-10-30T16:52:48;26.20;;;17.20;;
59109;SDS011;44895;47.438;18.978;2022-10-30T16:55:53;26.85;;;18.85;;
59109;SDS011;44895;47.438;18.978;2022-10-30T16:59:11;31.90;;;17.83;;
59109;SDS011;44895;47.438;18.978;2022-10-30T17:02:19;26.15;;;17.20;;
59109;SDS011;44895;47.438;18.978;2022-10-30T17:11:39;25.88;;;19.80;;
59109;SDS011;44895;47.438;18.978;2022-10-30T17:18:10;25.85;;;19.98;;
59109;SDS011;44895;47.438;18.978;2022-10-30T17:24:43;27.83;;;19.38;;
59109;SDS011;44895;47.438;18.978;2022-10-30T17:27:47;28.65;;;18.08;;
59109;SDS011;44895;47.438;18.978;2022-10-30T17:30:53;27.38;;;19.27;;
59109;SDS011;44895;47.438;18.978;2022-10-30T17:37:21;25.38;;;18.25;;
59109;SDS011;44895;47.438;18.978;2022-10-30T17:40:24;28.92;;;18.80;;
59109;SDS011;44895;47.438;18.978;2022-10-30T17:43:29;28.83;;;18.45;;
59109;SDS011;44895;47.438;18.978;2022-10-30T17:46:34;25.48;;;17.45;;
59109;SDS011;44895;47.438;18.978;2022-10-30T17:49:38;25.73;;;19.05;;
59109;SDS011;44895;47.438;18.978;2022-10-30T17:52:42;30.27;;;21.45;;
59109;SDS011;44895;47.438;18.978;2022-10-30T17:55:55;28.08;;;20.52;;
59109;SDS011;44895;47.438;18.978;2022-10-30T17:59:03;33.35;;;23.42;;
59109;SDS011;44895;47.438;18.978;2022-10-30T18:02:09;28.92;;;19.48;;
59109;SDS011;44895;47.438;18.978;2022-10-30T18:05:24;27.30;;;19.77;;
59109;SDS011;44895;47.438;18.978;2022-10-30T18:08:31;32.90;;;20.25;;
59109;SDS011;44895;47.438;18.978;2022-10-30T18:11:36;36.88;;;22.48;;
59109;SDS011;44895;47.438;18.978;2022-10-30T18:14:40;31.20;;;20.55;;
59109;SDS011;44895;47.438;18.978;2022-10-30T18:17:45;30.20;;;20.35;;
59109;SDS011;44895;47.438;18.978;2022-10-30T18:20:49;35.05;;;20.45;;
59109;SDS011;44895;47.438;18.978;2022-10-30T18:23:53;30.05;;;20.58;;
59109;SDS011;44895;47.438;18.978;2022-10-30T18:26:57;30.40;;;20.13;;
59109;SDS011;44895;47.438;18.978;2022-10-30T18:30:02;29.08;;;21.05;;
59109;SDS011;44895;47.438;18.978;2022-10-30T18:33:07;32.75;;;19.55;;
59109;SDS011;44895;47.438;18.978;2022-10-30T18:36:14;29.13;;;18.47;;
59109;SDS011;44895;47.438;18.978;2022-10-30T18:39:19;31.70;;;19.27;;
59109;SDS011;44895;47.438;18.978;2022-10-30T18:42:23;33.05;;;20.80;;
59109;SDS011;44895;47.438;18.978;2022-10-30T18:48:31;29.98;;;21.67;;
59109;SDS011;44895;47.438;18.978;2022-10-30T18:51:35;29.23;;;20.80;;
59109;SDS011;44895;47.438;18.978;2022-10-30T18:54:38;36.30;;;22.40;;
59109;SDS011;44895;47.438;18.978;2022-10-30T18:57:42;34.50;;;21.48;;
59109;SDS011;44895;47.438;18.978;2022-10-30T19:00:46;27.20;;;18.85;;
59109;SDS011;44895;47.438;18.978;2022-10-30T19:03:50;27.95;;;19.95;;
59109;SDS011;44895;47.438;18.978;2022-10-30T19:06:54;32.63;;;22.83;;
59109;SDS011;44895;47.438;18.978;2022-10-30T19:09:58;30.83;;;20.73;;
59109;SDS011;44895;47.438;18.978;2022-10-30T19:13:06;28.02;;;19.83;;
59109;SDS011;44895;47.438;18.978;2022-10-30T19:16:22;29.83;;;21.27;;
59109;SDS011;44895;47.438;18.978;2022-10-30T19:19:27;28.48;;;19.75;;
59109;SDS011;44895;47.438;18.978;2022-10-30T19:22:31;29.65;;;20.13;;
59109;SDS011;44895;47.438;18.978;2022-10-30T19:25:35;33.63;;;21.73;;
59109;SDS011;44895;47.438;18.978;2022-10-30T19:28:38;31.83;;;22.77;;
59109;SDS011;44895;47.438;18.978;2022-10-30T19:31:43;30.08;;;21.73;;
59109;SDS011;44895;47.438;18.978;2022-10-30T19:34:47;33.35;;;21.25;;
59109;SDS011;44895;47.438;18.978;2022-10-30T19:37:52;32.65;;;20.92;;
59109;SDS011;44895;47.438;18.978;2022-10-30T19:40:59;29.73;;;21.27;;
59109;SDS011;44895;47.438;18.978;2022-10-30T19:44:03;34.45;;;23.98;;
59109;SDS011;44895;47.438;18.978;2022-10-30T19:47:09;34.17;;;22.67;;
59109;SDS011;44895;47.438;18.978;2022-10-30T19:50:21;34.72;;;23.92;;
59109;SDS011;44895;47.438;18.978;2022-10-30T19:53:25;31.92;;;23.52;;
59109;SDS011;44895;47.438;18.978;2022-10-30T19:56:28;32.03;;;22.77;;
59109;SDS011;44895;47.438;18.978;2022-10-30T19:59:32;34.22;;;24.60;;
59109;SDS011;44895;47.438;18.978;2022-10-30T20:02:36;33.08;;;24.60;;
59109;SDS011;44895;47.438;18.978;2022-10-30T20:05:41;34.17;;;21.95;;
59109;SDS011;44895;47.438;18.978;2022-10-30T20:08:47;35.15;;;25.17;;
59109;SDS011;44895;47.438;18.978;2022-10-30T20:11:51;34.50;;;25.42;;
59109;SDS011;44895;47.438;18.978;2022-10-30T20:14:55;39.30;;;24.90;;
59109;SDS011;44895;47.438;18.978;2022-10-30T20:17:59;36.83;;;26.05;;
59109;SDS011;44895;47.438;18.978;2022-10-30T20:21:04;38.10;;;24.55;;
59109;SDS011;44895;47.438;18.978;2022-10-30T20:24:12;37.45;;;21.95;;
59109;SDS011;44895;47.438;18.978;2022-10-30T20:27:15;31.63;;;23.38;;
59109;SDS011;44895;47.438;18.978;2022-10-30T20:30:20;33.72;;;23.85;;
59109;SDS011;44895;47.438;18.978;2022-10-30T20:33:25;38.10;;;26.15;;
59109;SDS011;44895;47.438;18.978;2022-10-30T20:36:29;31.50;;;23.05;;
59109;SDS011;44895;47.438;18.978;2022-10-30T20:39:32;39.15;;;26.65;;